Time;durP1;ratioP1;P1;durP2;ratioP2;P2;SDS_P1;SDS_P2;PMS_P1;PMS_P2;Temp;Humidity;BMP_temperature;BMP_pressure;BME280_temperature;BME280_humidity;BME280_pressure;Samples;Min_cycle;Max_cycle;Signal;HPM_P1;HPM_P2
2022/08/18 00:02:05;;;;;;;0.00;0.00;;;21.90;99.90;226.50;231333.00;;;;5028228;28;20214;-72
2022/08/18 00:04:37;;;;;;;0.00;0.00;;;22.10;99.90;226.50;231333.00;;;;5029295;28;20281;-70
2022/08/18 00:07:20;;;;;;;0.00;0.00;;;22.00;99.90;226.50;231333.00;;;;5038592;28;20591;-71
2022/08/18 00:09:48;;;;;;;0.00;0.00;;;22.00;99.90;226.50;231333.00;;;;5044985;28;20588;-70
2022/08/18 00:12:23;;;;;;;0.00;0.00;;;21.70;99.90;226.50;231333.00;;;;5037658;28;20209;-70
2022/08/18 00:14:54;;;;;;;0.00;0.00;;;21.50;99.90;226.50;231333.00;;;;5044935;28;20213;-71
2022/08/18 00:17:23;;;;;;;0.00;0.00;;;21.50;99.90;226.50;231333.00;;;;5034809;28;20201;-72
2022/08/18 00:19:51;;;;;;;0.00;0.00;;;21.50;99.90;226.50;231333.00;;;;5034313;28;20234;-70
2022/08/18 00:22:21;;;;;;;0.00;0.00;;;21.50;99.90;226.50;231333.00;;;;5035794;28;20194;-71
2022/08/18 00:24:53;;;;;;;0.00;0.00;;;21.50;99.90;226.50;231333.00;;;;5034950;28;20669;-71
2022/08/18 00:27:24;;;;;;;0.00;0.00;;;21.70;99.90;226.50;231333.00;;;;5034870;28;20195;-71
2022/08/18 00:30:00;;;;;;;0.00;0.00;;;21.70;99.90;226.50;231333.00;;;;5034844;28;20264;-74
2022/08/18 00:32:32;;;;;;;0.00;0.00;;;21.70;99.90;226.50;231333.00;;;;5044402;28;20191;-72
2022/08/18 00:35:07;;;;;;;0.00;0.00;;;21.70;99.90;226.50;231333.00;;;;5044134;28;20203;-73
2022/08/18 00:37:36;;;;;;;0.00;0.00;;;21.70;99.90;226.50;231333.00;;;;5034456;28;20199;-73
2022/08/18 00:40:06;;;;;;;0.00;0.00;;;21.80;99.90;226.50;231333.00;;;;5034394;28;20226;-73
2022/08/18 00:42:43;;;;;;;0.00;0.00;;;21.70;99.90;226.50;231333.00;;;;5024341;28;20544;-72
2022/08/18 00:45:19;;;;;;;0.00;0.00;;;21.40;99.90;226.50;231333.00;;;;5043106;28;20198;-73
2022/08/18 00:47:47;;;;;;;0.00;0.00;;;21.30;99.90;226.50;231333.00;;;;5034279;28;20700;-73
2022/08/18 00:50:21;;;;;;;0.00;0.00;;;21.40;99.90;226.50;231333.00;;;;5038794;28;20705;-74
2022/08/18 00:52:58;;;;;;;0.00;0.00;;;21.30;99.90;226.50;231333.00;;;;5045151;28;20574;-73
2022/08/18 00:55:29;;;;;;;0.00;0.00;;;21.10;99.90;226.50;231333.00;;;;5029154;28;20207;-73
2022/08/18 00:58:05;;;;;;;0.00;0.00;;;21.00;99.90;226.50;231333.00;;;;5016535;28;20706;-73
2022/08/18 01:00:35;;;;;;;0.00;0.00;;;21.00;99.90;226.50;231333.00;;;;5028229;28;20233;-73
2022/08/18 01:03:11;;;;;;;0.00;0.00;;;21.00;99.90;226.50;231333.00;;;;5036117;28;20694;-73
2022/08/18 01:05:48;;;;;;;0.00;0.00;;;20.90;99.90;226.50;231333.00;;;;5020093;28;20577;-73
2022/08/18 01:08:17;;;;;;;0.00;0.00;;;21.00;99.90;226.50;231333.00;;;;5035669;28;20666;-73
2022/08/18 01:10:57;;;;;;;0.00;0.00;;;21.10;99.90;226.50;231333.00;;;;5018030;28;20302;-73
2022/08/18 01:13:30;;;;;;;0.00;0.00;;;21.20;99.90;226.50;231333.00;;;;5032979;28;20192;-73
2022/08/18 01:21:49;;;;;;;0.00;0.00;;;21.30;99.90;226.50;231333.00;;;;5030149;28;20195;-73
2022/08/18 01:21:52;;;;;;;0.00;0.00;;;21.20;99.90;226.50;231333.00;;;;5040316;28;20692;-73
2022/08/18 01:27:13;;;;;;;0.00;0.00;;;21.20;99.90;226.50;231333.00;;;;5022594;28;20698;-72
2022/08/18 01:29:44;;;;;;;0.00;0.00;;;21.30;99.90;226.50;231333.00;;;;5033129;28;20232;-73
2022/08/18 01:32:18;;;;;;;0.00;0.00;;;21.20;99.90;226.50;231333.00;;;;5032739;28;20597;-73
2022/08/18 01:34:48;;;;;;;0.00;0.00;;;21.20;99.90;226.50;231333.00;;;;5053186;28;20190;-73
2022/08/18 01:37:20;;;;;;;0.00;0.00;;;21.10;99.90;226.50;231333.00;;;;5035345;28;20206;-73
2022/08/18 01:39:50;;;;;;;0.00;0.00;;;21.10;99.90;226.50;231333.00;;;;5033342;28;20223;-72
2022/08/18 01:42:39;;;;;;;0.00;0.00;;;21.10;99.90;226.50;231333.00;;;;5044649;28;20199;-73
2022/08/18 01:45:09;;;;;;;0.00;0.00;;;21.00;99.90;226.50;231333.00;;;;5044312;28;20206;-74
2022/08/18 01:47:37;;;;;;;0.00;0.00;;;20.90;99.90;226.50;231333.00;;;;5025798;28;20207;-74
2022/08/18 01:50:16;;;;;;;0.00;0.00;;;20.90;99.90;226.50;231333.00;;;;5036804;28;20237;-75
2022/08/18 01:52:44;;;;;;;0.00;0.00;;;20.80;99.90;226.50;231333.00;;;;5043189;28;20190;-74
2022/08/18 01:55:13;;;;;;;0.00;0.00;;;20.80;99.90;226.50;231333.00;;;;5049099;28;20197;-74
2022/08/18 01:57:41;;;;;;;0.00;0.00;;;20.80;99.90;226.50;231333.00;;;;5032765;28;20199;-74
2022/08/18 02:00:13;;;;;;;0.00;0.00;;;20.70;99.90;226.50;231333.00;;;;5029042;28;20266;-74
2022/08/18 02:02:41;;;;;;;0.00;0.00;;;20.70;99.90;226.50;231333.00;;;;5029526;28;20244;-74
2022/08/18 02:05:14;;;;;;;0.00;0.00;;;20.70;99.90;226.50;231333.00;;;;5038670;28;20210;-74
2022/08/18 02:07:42;;;;;;;0.00;0.00;;;20.70;99.90;226.50;231333.00;;;;5032744;28;20194;-72
2022/08/18 02:10:16;;;;;;;0.00;0.00;;;20.60;99.90;226.50;231333.00;;;;5024379;28;20226;-74
2022/08/18 02:12:45;;;;;;;0.00;0.00;;;20.60;99.90;226.50;231333.00;;;;5040373;28;20191;-74
2022/08/18 02:15:13;;;;;;;0.00;0.00;;;20.50;99.90;226.50;231333.00;;;;5052996;28;20194;-74
2022/08/18 02:17:45;;;;;;;0.00;0.00;;;20.50;99.90;226.50;231333.00;;;;5012699;28;20195;-73
2022/08/18 02:20:17;;;;;;;0.00;0.00;;;20.50;99.90;226.50;231333.00;;;;5021470;28;20234;-73
2022/08/18 02:22:47;;;;;;;0.00;0.00;;;20.50;99.90;226.50;231333.00;;;;5039662;28;20217;-72
2022/08/18 02:25:18;;;;;;;0.00;0.00;;;20.50;99.90;226.50;231333.00;;;;5043764;28;20207;-72
2022/08/18 02:27:46;;;;;;;0.00;0.00;;;20.30;99.90;226.50;231333.00;;;;5031640;28;20199;-73
2022/08/18 02:30:17;;;;;;;0.00;0.00;;;20.30;99.90;226.50;231333.00;;;;5031987;28;20223;-73
2022/08/18 02:32:45;;;;;;;0.00;0.00;;;20.30;99.90;226.50;231333.00;;;;5026236;28;20230;-73
2022/08/18 02:35:13;;;;;;;0.00;0.00;;;20.30;99.90;226.50;231333.00;;;;5043709;28;20199;-73
2022/08/18 02:37:46;;;;;;;0.00;0.00;;;20.30;99.90;226.50;231333.00;;;;5031081;28;20203;-73
2022/08/18 02:40:17;;;;;;;0.00;0.00;;;20.20;99.90;226.50;231333.00;;;;5032060;28;20227;-74
2022/08/18 02:42:47;;;;;;;0.00;0.00;;;20.20;99.90;226.50;231333.00;;;;5032345;28;20214;-73
2022/08/18 02:45:15;;;;;;;0.00;0.00;;;20.00;99.90;226.50;231333.00;;;;5032581;28;20202;-73
2022/08/18 02:47:44;;;;;;;0.00;0.00;;;20.10;99.90;226.50;231333.00;;;;5031903;28;20601;-73
2022/08/18 02:50:15;;;;;;;0.00;0.00;;;20.00;99.90;226.50;231333.00;;;;5031900;28;20230;-73
2022/08/18 02:52:43;;;;;;;0.00;0.00;;;19.90;99.90;226.50;231333.00;;;;5039751;28;20568;-73
2022/08/18 02:55:12;;;;;;;0.00;0.00;;;19.90;99.90;226.50;231333.00;;;;5044842;28;20206;-73
2022/08/18 02:57:44;;;;;;;0.00;0.00;;;19.90;99.90;226.50;231333.00;;;;5032010;28;20191;-73
2022/08/18 03:00:16;;;;;;;0.00;0.00;;;20.00;99.90;226.50;231333.00;;;;5037717;28;20722;-73
2022/08/18 03:02:46;;;;;;;0.00;0.00;;;20.00;99.90;226.50;231333.00;;;;5033929;28;20191;-73
2022/08/18 03:05:15;;;;;;;0.00;0.00;;;19.90;99.90;226.50;231333.00;;;;5034396;28;20596;-74
2022/08/18 03:07:44;;;;;;;0.00;0.00;;;19.90;99.90;226.50;231333.00;;;;5034505;28;20191;-73
2022/08/18 03:10:14;;;;;;;0.03;0.03;;;19.90;99.90;226.50;231333.00;;;;5039210;28;20222;-73
2022/08/18 03:13:02;;;;;;;0.00;0.00;;;19.70;99.90;226.50;231333.00;;;;5036742;28;20200;-71
2022/08/18 03:15:30;;;;;;;0.00;0.00;;;19.50;99.90;226.50;231333.00;;;;5038811;28;20206;-71
2022/08/18 03:18:00;;;;;;;0.00;0.00;;;19.40;99.90;226.50;231333.00;;;;5015540;28;20207;-71
2022/08/18 03:20:28;;;;;;;0.00;0.00;;;19.40;99.90;226.50;231333.00;;;;5018834;28;20590;-71
2022/08/18 03:23:00;;;;;;;0.00;0.00;;;19.30;99.90;226.50;231333.00;;;;5039686;28;20198;-71
2022/08/18 03:25:43;;;;;;;0.00;0.00;;;19.30;99.90;226.50;231333.00;;;;5014015;28;20200;-72
2022/08/18 03:28:13;;;;;;;0.00;0.00;;;19.30;99.90;226.50;231333.00;;;;5031476;28;20203;-72
2022/08/18 03:30:42;;;;;;;0.00;0.00;;;19.30;99.90;226.50;231333.00;;;;5031647;28;20230;-73
2022/08/18 03:33:10;;;;;;;0.00;0.00;;;19.30;99.90;226.50;231333.00;;;;5041305;28;20202;-72
2022/08/18 03:35:39;;;;;;;0.00;0.00;;;19.30;99.90;226.50;231333.00;;;;5032904;28;20191;-72
2022/08/18 03:38:08;;;;;;;0.00;0.00;;;19.40;99.90;226.50;231333.00;;;;5031147;28;20666;-72
2022/08/18 03:40:36;;;;;;;0.10;0.10;;;19.50;99.90;226.50;231333.00;;;;5047373;28;20242;-72
2022/08/18 03:43:05;;;;;;;0.00;0.00;;;19.40;99.90;226.50;231333.00;;;;5035561;28;20191;-74
2022/08/18 03:45:55;;;;;;;0.00;0.00;;;19.10;99.90;226.50;231333.00;;;;5035545;28;20260;-72
2022/08/18 03:48:24;;;;;;;0.00;0.00;;;19.00;99.90;226.50;231333.00;;;;5036761;28;20218;-72
2022/08/18 03:50:52;;;;;;;0.00;0.00;;;19.00;99.90;226.50;231333.00;;;;5047464;28;20206;-72
2022/08/18 03:53:20;;;;;;;0.00;0.00;;;19.00;99.90;226.50;231333.00;;;;5048183;28;20202;-73
2022/08/18 03:55:48;;;;;;;0.00;0.00;;;19.00;99.90;226.50;231333.00;;;;5044887;28;20206;-73
2022/08/18 03:58:16;;;;;;;0.00;0.00;;;19.10;99.90;226.50;231333.00;;;;5044233;28;20191;-73
2022/08/18 04:00:44;;;;;;;0.00;0.00;;;19.00;99.90;226.50;231333.00;;;;5049352;28;20210;-72
2022/08/18 04:03:13;;;;;;;0.00;0.00;;;19.10;99.90;226.50;231333.00;;;;5053027;28;20202;-72
2022/08/18 04:05:41;;;;;;;0.00;0.00;;;19.30;99.90;226.50;231333.00;;;;5025631;28;20602;-72
2022/08/18 04:08:09;;;;;;;0.00;0.00;;;19.30;99.90;226.50;231333.00;;;;5033085;28;20198;-73
2022/08/18 04:10:37;;;;;;;0.00;0.00;;;19.20;99.90;226.50;231333.00;;;;5040934;28;20226;-72
2022/08/18 04:13:05;;;;;;;0.00;0.00;;;19.20;99.90;226.50;231333.00;;;;5033612;28;20558;-74
2022/08/18 04:15:33;;;;;;;0.00;0.00;;;19.30;99.90;226.50;231333.00;;;;5022568;28;20207;-73
2022/08/18 04:18:03;;;;;;;0.00;0.00;;;19.30;99.90;226.50;231333.00;;;;5034813;28;20210;-74
2022/08/18 04:20:32;;;;;;;0.00;0.00;;;18.90;99.90;226.50;231333.00;;;;5040574;28;20297;-73
2022/08/18 04:23:01;;;;;;;0.00;0.00;;;18.80;99.90;226.50;231333.00;;;;5044717;28;20198;-73
2022/08/18 04:25:31;;;;;;;0.00;0.00;;;18.90;99.90;226.50;231333.00;;;;5048025;28;20230;-73
2022/08/18 04:28:02;;;;;;;0.00;0.00;;;18.80;99.90;226.50;231333.00;;;;5034616;28;20203;-73
2022/08/18 04:30:30;;;;;;;0.00;0.00;;;18.50;99.90;226.50;231333.00;;;;5034843;28;20210;-73
2022/08/18 04:33:01;;;;;;;0.10;0.10;;;18.40;99.90;226.50;231333.00;;;;5049224;28;20225;-73
2022/08/18 04:35:32;;;;;;;0.00;0.00;;;18.40;99.90;226.50;231333.00;;;;5054803;28;20196;-73
2022/08/18 04:38:00;;;;;;;0.00;0.00;;;18.60;99.90;226.50;231333.00;;;;5036272;28;20203;-73
2022/08/18 04:40:28;;;;;;;0.00;0.00;;;18.60;99.90;226.50;231333.00;;;;5035014;28;20218;-73
2022/08/18 04:42:56;;;;;;;0.00;0.00;;;18.70;99.90;226.50;231333.00;;;;5042082;28;20662;-73
2022/08/18 04:45:25;;;;;;;0.00;0.00;;;18.80;99.90;226.50;231333.00;;;;5049012;28;20203;-74
2022/08/18 04:47:53;;;;;;;0.00;0.00;;;18.80;99.90;226.50;231333.00;;;;5027720;28;20198;-73
2022/08/18 04:50:23;;;;;;;0.00;0.00;;;18.90;99.90;226.50;231333.00;;;;5044503;28;20219;-72
2022/08/18 04:55:48;;;;;;;0.00;0.00;;;19.20;99.90;226.50;231333.00;;;;5027142;28;20210;-72
2022/08/18 04:58:17;;;;;;;0.00;0.00;;;19.20;99.90;226.50;231333.00;;;;5014805;28;20191;-72
2022/08/18 05:00:45;;;;;;;0.00;0.00;;;19.40;99.90;226.50;231333.00;;;;5021045;28;20218;-72
2022/08/18 05:03:13;;;;;;;0.00;0.00;;;19.60;99.90;226.50;231333.00;;;;5021892;28;20254;-73
2022/08/18 05:05:41;;;;;;;0.00;0.00;;;19.80;99.90;226.50;231333.00;;;;4981848;28;20205;-72
2022/08/18 05:08:11;;;;;;;0.00;0.00;;;19.90;99.90;226.50;231333.00;;;;5012988;28;20196;-74
2022/08/18 05:10:40;;;;;;;0.00;0.00;;;20.00;99.90;226.50;231333.00;;;;5017743;28;20222;-72
2022/08/18 05:13:08;;;;;;;0.00;0.00;;;20.00;99.90;226.50;231333.00;;;;5024822;28;20206;-72
2022/08/18 05:15:36;;;;;;;0.00;0.00;;;20.00;99.90;226.50;231333.00;;;;5019609;28;20195;-71
2022/08/18 05:18:24;;;;;;;0.00;0.00;;;20.00;99.90;226.50;231333.00;;;;5016094;28;20203;-71
2022/08/18 05:20:56;;;;;;;0.00;0.00;;;20.00;99.90;226.50;231333.00;;;;5023508;28;20223;-71
2022/08/18 05:23:25;;;;;;;0.00;0.00;;;20.20;99.90;226.50;231333.00;;;;5027296;28;20205;-71
2022/08/18 05:25:58;;;;;;;0.00;0.00;;;20.20;99.90;226.50;231333.00;;;;5020679;28;20208;-72
2022/08/18 05:28:26;;;;;;;0.00;0.00;;;20.20;99.90;226.50;231333.00;;;;5026634;28;20191;-73
2022/08/18 05:30:55;;;;;;;0.00;0.00;;;20.20;99.90;226.50;231333.00;;;;5021099;28;20203;-73
2022/08/18 05:33:27;;;;;;;0.00;0.00;;;20.20;99.90;226.50;231333.00;;;;5026327;28;20267;-73
2022/08/18 05:36:03;;;;;;;0.00;0.00;;;20.20;99.90;226.50;231333.00;;;;5014470;28;20215;-73
2022/08/18 05:38:47;;;;;;;0.00;0.00;;;20.30;99.90;226.50;231333.00;;;;5013535;28;20214;-73
2022/08/18 05:41:26;;;;;;;0.00;0.00;;;20.50;99.90;226.50;231333.00;;;;5003755;28;20604;-72
2022/08/18 05:43:57;;;;;;;0.00;0.00;;;20.60;99.90;226.50;231333.00;;;;5019062;28;20211;-71
2022/08/18 05:46:40;;;;;;;0.00;0.00;;;20.60;99.90;226.50;231333.00;;;;5013290;28;20191;-71
2022/08/18 05:49:08;;;;;;;0.00;0.00;;;20.70;99.90;226.50;231333.00;;;;5026097;28;20216;-71
2022/08/18 05:51:43;;;;;;;0.00;0.00;;;20.70;99.90;226.50;231333.00;;;;5013519;28;20219;-71
2022/08/18 05:57:08;;;;;;;0.00;0.00;;;20.80;99.90;226.50;231333.00;;;;5013326;28;20199;-72
2022/08/18 05:59:41;;;;;;;0.00;0.00;;;20.90;99.90;226.50;231333.00;;;;5019680;28;20218;-72
2022/08/18 06:02:17;;;;;;;0.00;0.00;;;20.80;99.90;226.50;231333.00;;;;5007311;28;20234;-71
2022/08/18 06:04:54;;;;;;;0.00;0.00;;;20.70;99.90;226.50;231333.00;;;;5016965;28;20553;-71
2022/08/18 06:07:36;;;;;;;0.00;0.00;;;20.50;99.90;226.50;231333.00;;;;4993763;28;20199;-70
2022/08/18 06:10:10;;;;;;;0.00;0.00;;;20.50;99.90;226.50;231333.00;;;;4994685;28;20703;-71
2022/08/18 06:12:42;;;;;;;0.00;0.00;;;20.60;99.90;226.50;231333.00;;;;5026847;28;20202;-72
2022/08/18 06:15:18;;;;;;;0.00;0.00;;;20.60;99.90;226.50;231333.00;;;;5025192;28;20227;-71
2022/08/18 06:18:14;;;;;;;0.00;0.00;;;20.60;99.90;226.50;231333.00;;;;5033339;28;20184;-71
2022/08/18 06:21:11;;;;;;;0.00;0.00;;;20.60;99.90;226.50;231333.00;;;;5030786;28;20225;-71
2022/08/18 06:23:49;;;;;;;0.00;0.00;;;20.50;99.90;226.50;231333.00;;;;5032633;28;20215;-71
2022/08/18 06:26:33;;;;;;;0.00;0.00;;;20.60;99.90;226.50;231333.00;;;;5013311;28;20206;-73
2022/08/18 06:29:16;;;;;;;0.00;0.00;;;20.60;99.90;226.50;231333.00;;;;5013473;28;20706;-71
2022/08/18 06:31:55;;;;;;;0.00;0.00;;;20.60;99.90;226.50;231333.00;;;;5028723;28;20229;-71
2022/08/18 06:34:41;;;;;;;0.00;0.00;;;20.70;99.90;226.50;231333.00;;;;4998377;28;20192;-71
2022/08/18 06:37:19;;;;;;;0.00;0.00;;;20.70;99.90;226.50;231333.00;;;;4994168;28;20585;-71
2022/08/18 06:39:51;;;;;;;0.00;0.00;;;20.80;99.90;226.50;231333.00;;;;5016634;28;20949;-71
2022/08/18 06:42:29;;;;;;;0.00;0.00;;;20.90;99.90;226.50;231333.00;;;;5005597;28;20740;-72
2022/08/18 06:45:02;;;;;;;0.00;0.00;;;21.00;99.90;226.50;231333.00;;;;5023601;28;20196;-72
2022/08/18 06:47:39;;;;;;;0.00;0.00;;;21.10;99.90;226.50;231333.00;;;;5013849;28;20188;-72
2022/08/18 06:50:20;;;;;;;0.00;0.00;;;21.20;99.90;226.50;231333.00;;;;5020542;28;20226;-72
2022/08/18 06:52:54;;;;;;;0.00;0.00;;;21.20;99.90;226.50;231333.00;;;;5023650;28;20199;-72
2022/08/18 06:55:35;;;;;;;0.00;0.00;;;21.30;99.90;226.50;231333.00;;;;5034847;28;20198;-72
2022/08/18 06:58:19;;;;;;;0.00;0.00;;;21.30;99.90;226.50;231333.00;;;;5034973;28;20195;-71
2022/08/18 07:00:59;;;;;;;0.00;0.00;;;21.30;99.90;226.50;231333.00;;;;5020035;28;20238;-71
2022/08/18 07:03:45;;;;;;;0.00;0.00;;;21.30;99.90;226.50;231333.00;;;;5016561;28;20230;-71
2022/08/18 07:06:30;;;;;;;0.00;0.00;;;21.30;99.90;226.50;231333.00;;;;5028380;28;20195;-72
2022/08/18 07:09:22;;;;;;;0.00;0.00;;;21.20;99.90;226.50;231333.00;;;;5033270;28;20210;-73
2022/08/18 07:12:06;;;;;;;0.00;0.00;;;21.00;99.90;226.50;231333.00;;;;5015611;28;20191;-71
2022/08/18 07:14:46;;;;;;;0.00;0.00;;;21.20;99.90;226.50;231333.00;;;;4998551;28;20204;-71
2022/08/18 07:17:23;;;;;;;0.00;0.00;;;21.30;99.90;226.50;231333.00;;;;5032939;28;20197;-72
2022/08/18 07:20:23;;;;;;;0.00;0.00;;;21.40;99.90;226.50;231333.00;;;;5035360;28;20221;-72
2022/08/18 07:22:57;;;;;;;0.00;0.00;;;21.50;99.90;226.50;231333.00;;;;5025053;28;20250;-72
2022/08/18 07:25:32;;;;;;;0.00;0.00;;;21.40;99.90;226.50;231333.00;;;;5014669;28;20191;-72
2022/08/18 07:28:01;;;;;;;0.00;0.00;;;21.50;99.90;226.50;231333.00;;;;4992980;28;20192;-71
2022/08/18 07:30:36;;;;;;;0.00;0.00;;;21.50;99.90;226.50;231333.00;;;;5010436;28;20223;-71
2022/08/18 07:33:17;;;;;;;0.00;0.00;;;21.40;99.90;226.50;231333.00;;;;5022701;28;20203;-74
2022/08/18 07:35:49;;;;;;;0.00;0.00;;;21.40;99.90;226.50;231333.00;;;;5026828;28;20582;-73
2022/08/18 07:38:26;;;;;;;0.00;0.00;;;21.40;99.90;226.50;231333.00;;;;5017443;28;20262;-74
2022/08/18 07:41:19;;;;;;;0.00;0.00;;;21.40;99.90;226.50;231333.00;;;;5023168;28;20195;-75
2022/08/18 07:44:05;;;;;;;0.00;0.00;;;21.30;99.90;226.50;231333.00;;;;5015045;28;20222;-74
2022/08/18 07:46:51;;;;;;;0.00;0.00;;;21.30;99.90;226.50;231333.00;;;;5029572;28;20199;-74
2022/08/18 07:49:23;;;;;;;0.00;0.00;;;21.30;99.90;226.50;231333.00;;;;5032831;28;20229;-74
2022/08/18 07:52:03;;;;;;;0.00;0.00;;;21.20;99.90;226.50;231333.00;;;;5019952;28;20530;-73
2022/08/18 07:54:47;;;;;;;0.00;0.00;;;21.10;99.90;226.50;231333.00;;;;5013885;28;20548;-75
2022/08/18 07:57:32;;;;;;;0.00;0.00;;;21.00;99.90;226.50;231333.00;;;;5023311;28;20628;-72
2022/08/18 08:00:19;;;;;;;0.00;0.00;;;21.00;99.90;226.50;231333.00;;;;4997934;28;20285;-72
2022/08/18 08:03:29;;;;;;;0.00;0.00;;;21.10;99.90;226.50;231333.00;;;;5029232;28;20218;-71
2022/08/18 08:06:17;;;;;;;0.00;0.00;;;21.10;99.90;226.50;231333.00;;;;5036135;28;20658;-73
2022/08/18 08:09:01;;;;;;;0.00;0.00;;;21.00;99.90;226.50;231333.00;;;;5022648;28;20192;-74
2022/08/18 08:11:46;;;;;;;0.00;0.00;;;21.00;99.90;226.50;231333.00;;;;5015650;28;20191;-74
2022/08/18 08:14:36;;;;;;;0.00;0.00;;;21.00;99.90;226.50;231333.00;;;;5014621;28;20200;-73
2022/08/18 08:17:17;;;;;;;0.00;0.00;;;20.90;99.90;226.50;231333.00;;;;5032255;28;20261;-73
2022/08/18 08:20:10;;;;;;;0.00;0.00;;;20.90;99.90;226.50;231333.00;;;;5020137;28;20219;-73
2022/08/18 08:22:58;;;;;;;0.00;0.00;;;20.90;99.90;226.50;231333.00;;;;5023950;28;20211;-73
2022/08/18 08:25:34;;;;;;;0.00;0.00;;;21.10;99.90;226.50;231333.00;;;;5030218;28;20270;-73
2022/08/18 08:28:33;;;;;;;0.00;0.00;;;21.20;99.90;226.50;231333.00;;;;5018363;28;20250;-74
2022/08/18 08:31:10;;;;;;;0.00;0.00;;;21.30;99.90;226.50;231333.00;;;;5018534;28;20188;-73
2022/08/18 08:34:09;;;;;;;0.00;0.00;;;21.30;99.90;226.50;231333.00;;;;5034675;28;20601;-73
2022/08/18 08:36:44;;;;;;;0.00;0.00;;;21.40;99.90;226.50;231333.00;;;;5036592;28;20223;-73
2022/08/18 08:39:21;;;;;;;0.00;0.00;;;21.40;99.90;226.50;231333.00;;;;5030001;28;20225;-73
2022/08/18 08:41:56;;;;;;;0.00;0.00;;;21.30;99.90;226.50;231333.00;;;;5018546;28;20588;-74
2022/08/18 08:44:52;;;;;;;0.00;0.00;;;21.20;99.90;226.50;231333.00;;;;5024337;28;20224;-74
2022/08/18 08:47:35;;;;;;;0.00;0.00;;;21.20;99.90;226.50;231333.00;;;;5023148;28;20760;-74
2022/08/18 08:50:08;;;;;;;0.00;0.00;;;21.30;99.90;226.50;231333.00;;;;5018667;28;20219;-74
2022/08/18 08:52:46;;;;;;;0.00;0.00;;;21.40;99.90;226.50;231333.00;;;;5023446;28;20195;-74
2022/08/18 08:55:20;;;;;;;0.00;0.00;;;21.50;99.90;226.50;231333.00;;;;5036301;28;20206;-73
2022/08/18 08:57:56;;;;;;;0.00;0.00;;;21.60;99.90;226.50;231333.00;;;;5034140;28;20205;-73
2022/08/18 09:00:25;;;;;;;0.00;0.00;;;21.70;99.90;226.50;231333.00;;;;5036452;28;20211;-73
2022/08/18 09:03:13;;;;;;;0.00;0.00;;;21.70;99.90;226.50;231333.00;;;;5025525;28;20199;-73
2022/08/18 09:05:55;;;;;;;0.00;0.00;;;21.70;99.90;226.50;231333.00;;;;4997865;28;20189;-73
2022/08/18 09:08:49;;;;;;;0.00;0.00;;;21.60;99.90;226.50;231333.00;;;;5032666;28;20196;-73
2022/08/18 09:12:05;;;;;;;0.00;0.00;;;21.50;99.90;226.50;231333.00;;;;5040439;28;20199;-73
2022/08/18 09:15:19;;;;;;;0.00;0.00;;;21.50;99.90;226.50;231333.00;;;;5013787;28;20199;-73
2022/08/18 09:18:26;;;;;;;0.00;0.00;;;21.40;99.90;226.50;231333.00;;;;5026338;28;20195;-73
2022/08/18 09:21:17;;;;;;;0.00;0.00;;;21.30;99.90;226.50;231333.00;;;;5023728;28;20195;-73
2022/08/18 09:23:52;;;;;;;0.00;0.00;;;21.30;99.90;226.50;231333.00;;;;5023972;28;20647;-73
2022/08/18 09:26:39;;;;;;;0.00;0.00;;;21.30;99.90;226.50;231333.00;;;;5025329;28;20203;-73
2022/08/18 09:29:22;;;;;;;0.00;0.00;;;21.20;99.90;226.50;231333.00;;;;5034110;28;20293;-73
2022/08/18 09:32:47;;;;;;;0.00;0.00;;;21.10;99.90;226.50;231333.00;;;;5020523;28;20207;-73
2022/08/18 09:35:36;;;;;;;0.00;0.00;;;21.10;99.90;226.50;231333.00;;;;5027566;28;20665;-73
2022/08/18 09:44:11;;;;;;;0.00;0.00;;;21.20;99.90;226.50;231333.00;;;;5014873;28;20211;-73
2022/08/18 09:46:58;;;;;;;0.00;0.00;;;21.30;99.90;226.50;231333.00;;;;5012880;28;20215;-73
2022/08/18 09:49:52;;;;;;;0.00;0.00;;;21.40;99.90;226.50;231333.00;;;;5013200;28;20208;-72
2022/08/18 09:52:59;;;;;;;0.00;0.00;;;21.40;99.90;226.50;231333.00;;;;5019863;28;20188;-73
2022/08/18 09:55:56;;;;;;;0.00;0.00;;;21.30;99.90;226.50;231333.00;;;;5012605;28;20204;-73
2022/08/18 09:58:53;;;;;;;0.00;0.00;;;21.30;99.90;226.50;231333.00;;;;5006098;28;20258;-73
2022/08/18 10:01:35;;;;;;;0.00;0.00;;;21.40;99.90;226.50;231333.00;;;;5016532;28;20202;-73
2022/08/18 10:04:31;;;;;;;0.00;0.00;;;21.40;99.90;226.50;231333.00;;;;5016962;28;20223;-72
2022/08/18 10:07:29;;;;;;;0.00;0.00;;;21.30;99.90;226.50;231333.00;;;;5008323;28;20530;-73
2022/08/18 10:10:24;;;;;;;0.00;0.00;;;21.30;99.90;226.50;231333.00;;;;5020810;28;20229;-73
2022/08/18 10:13:25;;;;;;;0.00;0.00;;;21.30;99.90;226.50;231333.00;;;;5000123;28;20198;-72
2022/08/18 10:16:14;;;;;;;0.00;0.00;;;21.30;99.90;226.50;231333.00;;;;5017711;28;20612;-72
2022/08/18 10:19:06;;;;;;;0.00;0.00;;;21.50;99.90;226.50;231333.00;;;;5000504;28;20870;-72
2022/08/18 10:22:10;;;;;;;0.00;0.00;;;21.70;99.90;226.50;231333.00;;;;5005011;28;20199;-72
2022/08/18 10:24:52;;;;;;;0.00;0.00;;;21.70;99.90;226.50;231333.00;;;;5020883;28;20226;-72
2022/08/18 10:27:53;;;;;;;0.00;0.00;;;21.80;99.90;226.50;231333.00;;;;5015145;28;20192;-72
2022/08/18 10:31:06;;;;;;;0.00;0.00;;;22.00;99.90;226.50;231333.00;;;;4999223;28;20311;-72
2022/08/18 10:34:05;;;;;;;0.00;0.00;;;22.00;99.90;226.50;231333.00;;;;4997365;28;20298;-73
2022/08/18 10:36:51;;;;;;;0.00;0.00;;;22.00;99.90;226.50;231333.00;;;;4977647;28;20215;-73
2022/08/18 10:39:23;;;;;;;0.00;0.00;;;22.00;99.90;226.50;231333.00;;;;4996728;28;20215;-73
2022/08/18 10:42:19;;;;;;;0.00;0.00;;;22.00;99.90;226.50;231333.00;;;;5014404;28;20192;-73
2022/08/18 10:44:53;;;;;;;0.00;0.00;;;22.00;99.90;226.50;231333.00;;;;5013495;28;20239;-73
2022/08/18 10:47:25;;;;;;;0.00;0.00;;;22.00;99.90;226.50;231333.00;;;;5036140;28;20199;-73
2022/08/18 10:50:12;;;;;;;0.00;0.00;;;22.10;99.90;226.50;231333.00;;;;5031953;28;20222;-73
2022/08/18 10:53:03;;;;;;;0.00;0.00;;;22.10;99.90;226.50;231333.00;;;;5025634;28;20620;-72
2022/08/18 10:56:00;;;;;;;0.00;0.00;;;22.20;99.90;226.50;231333.00;;;;5024258;28;20281;-72
2022/08/18 10:58:56;;;;;;;0.00;0.00;;;22.40;99.90;226.50;231333.00;;;;4999741;28;20552;-72
2022/08/18 11:02:06;;;;;;;0.00;0.00;;;22.50;99.90;226.50;231333.00;;;;5037446;28;20199;-74
2022/08/18 11:04:40;;;;;;;0.00;0.00;;;22.60;99.90;226.50;231333.00;;;;5001799;28;20556;-73
2022/08/18 11:07:17;;;;;;;0.00;0.00;;;22.60;99.90;226.50;231333.00;;;;5017709;28;20199;-73
2022/08/18 11:09:52;;;;;;;0.00;0.00;;;22.60;99.90;226.50;231333.00;;;;5020034;28;20215;-73
2022/08/18 11:12:56;;;;;;;0.00;0.00;;;22.50;99.90;226.50;231333.00;;;;4998969;28;20567;-73
2022/08/18 11:15:36;;;;;;;0.00;0.00;;;22.50;99.90;226.50;231333.00;;;;5016223;28;20202;-73
2022/08/18 11:18:29;;;;;;;0.00;0.00;;;22.50;99.90;226.50;231333.00;;;;5022391;28;20214;-74
2022/08/18 11:21:41;;;;;;;0.00;0.00;;;22.60;99.90;226.50;231333.00;;;;5031735;28;20677;-73
2022/08/18 11:24:19;;;;;;;0.00;0.00;;;22.70;99.90;226.50;231333.00;;;;4972611;28;20251;-73
2022/08/18 11:26:53;;;;;;;0.00;0.00;;;22.70;99.90;226.50;231333.00;;;;4998739;28;20287;-74
2022/08/18 11:29:30;;;;;;;0.00;0.00;;;22.70;99.90;226.50;231333.00;;;;5020108;28;20590;-73
2022/08/18 11:32:06;;;;;;;0.00;0.00;;;22.70;99.90;226.50;231333.00;;;;5031393;28;20277;-73
2022/08/18 11:34:45;;;;;;;0.00;0.00;;;22.80;99.90;226.50;231333.00;;;;4992257;28;20192;-74
2022/08/18 11:37:26;;;;;;;0.00;0.00;;;22.80;99.90;226.50;231333.00;;;;5025979;28;20194;-74
2022/08/18 11:40:34;;;;;;;0.00;0.00;;;23.00;99.90;226.50;231333.00;;;;5006674;28;20220;-73
2022/08/18 11:43:27;;;;;;;0.00;0.00;;;23.20;99.90;226.50;231333.00;;;;5004660;28;20200;-73
2022/08/18 11:46:27;;;;;;;0.00;0.00;;;23.30;99.90;226.50;231333.00;;;;5010393;28;20241;-73